sensor_id;sensor_type;location;lat;lon;timestamp;P1;durP1;ratioP1;P2;durP2;ratioP2
3613;SDS011;1821;50.936;6.854;2022-12-20T00:00:29;3.85;;;2.25;;
3613;SDS011;1821;50.936;6.854;2022-12-20T00:01:12;5.10;;;2.35;;
3613;SDS011;1821;50.936;6.854;2022-12-20T00:01:55;3.40;;;2.20;;
3613;SDS011;1821;50.936;6.854;2022-12-20T00:02:37;4.78;;;2.60;;
3613;SDS011;1821;50.936;6.854;2022-12-20T00:03:19;5.40;;;2.90;;
3613;SDS011;1821;50.936;6.854;2022-12-20T00:04:02;3.60;;;2.42;;
3613;SDS011;1821;50.936;6.854;2022-12-20T00:04:46;4.07;;;2.50;;
3613;SDS011;1821;50.936;6.854;2022-12-20T00:05:27;2.95;;;2.10;;
3613;SDS011;1821;50.936;6.854;2022-12-20T00:06:10;3.90;;;2.10;;
3613;SDS011;1821;50.936;6.854;2022-12-20T00:06:52;3.78;;;2.33;;
3613;SDS011;1821;50.936;6.854;2022-12-20T00:07:34;4.25;;;2.65;;
3613;SDS011;1821;50.936;6.854;2022-12-20T00:08:16;4.30;;;2.60;;
3613;SDS011;1821;50.936;6.854;2022-12-20T00:08:59;3.70;;;2.45;;
3613;SDS011;1821;50.936;6.854;2022-12-20T00:09:42;3.35;;;2.47;;
3613;SDS011;1821;50.936;6.854;2022-12-20T00:10:23;3.42;;;2.60;;
3613;SDS011;1821;50.936;6.854;2022-12-20T00:11:06;3.17;;;2.30;;
3613;SDS011;1821;50.936;6.854;2022-12-20T00:11:49;4.07;;;2.30;;
3613;SDS011;1821;50.936;6.854;2022-12-20T00:12:31;4.40;;;2.38;;
3613;SDS011;1821;50.936;6.854;2022-12-20T00:13:13;3.17;;;2.10;;
3613;SDS011;1821;50.936;6.854;2022-12-20T00:13:55;4.40;;;2.50;;
3613;SDS011;1821;50.936;6.854;2022-12-20T00:14:37;4.40;;;2.50;;
3613;SDS011;1821;50.936;6.854;2022-12-20T00:15:19;4.00;;;2.60;;
3613;SDS011;1821;50.936;6.854;2022-12-20T00:16:05;4.22;;;2.38;;
3613;SDS011;1821;50.936;6.854;2022-12-20T00:16:51;3.60;;;2.20;;
3613;SDS011;1821;50.936;6.854;2022-12-20T00:17:33;3.85;;;2.13;;
3613;SDS011;1821;50.936;6.854;2022-12-20T00:18:16;4.60;;;2.50;;
3613;SDS011;1821;50.936;6.854;2022-12-20T00:18:59;3.35;;;2.10;;
3613;SDS011;1821;50.936;6.854;2022-12-20T00:19:42;4.00;;;2.35;;
3613;SDS011;1821;50.936;6.854;2022-12-20T00:20:25;4.22;;;2.22;;
3613;SDS011;1821;50.936;6.854;2022-12-20T00:21:09;3.10;;;2.10;;
3613;SDS011;1821;50.936;6.854;2022-12-20T00:21:55;3.30;;;1.90;;
3613;SDS011;1821;50.936;6.854;2022-12-20T00:22:36;3.40;;;2.10;;
3613;SDS011;1821;50.936;6.854;2022-12-20T00:23:18;4.75;;;2.10;;
3613;SDS011;1821;50.936;6.854;2022-12-20T00:24:00;5.25;;;2.30;;
3613;SDS011;1821;50.936;6.854;2022-12-20T00:24:42;3.90;;;2.60;;
3613;SDS011;1821;50.936;6.854;2022-12-20T00:25:23;4.80;;;2.60;;
3613;SDS011;1821;50.936;6.854;2022-12-20T00:26:12;4.82;;;2.40;;
3613;SDS011;1821;50.936;6.854;2022-12-20T00:26:58;3.00;;;2.10;;
3613;SDS011;1821;50.936;6.854;2022-12-20T00:27:40;3.00;;;2.28;;
3613;SDS011;1821;50.936;6.854;2022-12-20T00:28:21;3.17;;;2.20;;
3613;SDS011;1821;50.936;6.854;2022-12-20T00:29:05;3.67;;;2.10;;
3613;SDS011;1821;50.936;6.854;2022-12-20T00:29:47;4.50;;;2.35;;
3613;SDS011;1821;50.936;6.854;2022-12-20T00:30:29;4.38;;;2.58;;
3613;SDS011;1821;50.936;6.854;2022-12-20T00:31:11;4.50;;;2.50;;
3613;SDS011;1821;50.936;6.854;2022-12-20T00:31:54;3.78;;;2.40;;
3613;SDS011;1821;50.936;6.854;2022-12-20T00:32:36;4.05;;;2.78;;
3613;SDS011;1821;50.936;6.854;2022-12-20T00:33:18;3.80;;;2.60;;
3613;SDS011;1821;50.936;6.854;2022-12-20T00:34:00;4.30;;;2.60;;
3613;SDS011;1821;50.936;6.854;2022-12-20T00:34:42;3.53;;;2.40;;
3613;SDS011;1821;50.936;6.854;2022-12-20T00:35:24;6.20;;;2.90;;
3613;SDS011;1821;50.936;6.854;2022-12-20T00:36:05;5.38;;;2.70;;
3613;SDS011;1821;50.936;6.854;2022-12-20T00:36:48;4.70;;;3.30;;
3613;SDS011;1821;50.936;6.854;2022-12-20T00:37:30;6.57;;;3.65;;
3613;SDS011;1821;50.936;6.854;2022-12-20T00:38:11;5.30;;;3.20;;
3613;SDS011;1821;50.936;6.854;2022-12-20T00:38:54;4.45;;;3.45;;
3613;SDS011;1821;50.936;6.854;2022-12-20T00:39:39;4.88;;;3.50;;
3613;SDS011;1821;50.936;6.854;2022-12-20T00:40:20;5.05;;;3.20;;
3613;SDS011;1821;50.936;6.854;2022-12-20T00:41:04;6.63;;;3.03;;
3613;SDS011;1821;50.936;6.854;2022-12-20T00:41:48;4.90;;;3.30;;
3613;SDS011;1821;50.936;6.854;2022-12-20T00:42:29;4.63;;;2.85;;
3613;SDS011;1821;50.936;6.854;2022-12-20T00:43:11;4.18;;;2.70;;
3613;SDS011;1821;50.936;6.854;2022-12-20T00:43:53;5.05;;;3.28;;
3613;SDS011;1821;50.936;6.854;2022-12-20T00:44:35;4.57;;;3.53;;
3613;SDS011;1821;50.936;6.854;2022-12-20T00:45:16;5.70;;;3.08;;
3613;SDS011;1821;50.936;6.854;2022-12-20T00:45:58;4.93;;;2.85;;
3613;SDS011;1821;50.936;6.854;2022-12-20T00:46:41;6.60;;;3.20;;
3613;SDS011;1821;50.936;6.854;2022-12-20T00:47:22;5.72;;;2.95;;
3613;SDS011;1821;50.936;6.854;2022-12-20T00:48:04;5.40;;;2.92;;
3613;SDS011;1821;50.936;6.854;2022-12-20T00:48:46;3.78;;;2.88;;
3613;SDS011;1821;50.936;6.854;2022-12-20T00:49:28;5.35;;;3.50;;
3613;SDS011;1821;50.936;6.854;2022-12-20T00:50:10;4.43;;;3.00;;
3613;SDS011;1821;50.936;6.854;2022-12-20T00:50:51;4.88;;;3.20;;
3613;SDS011;1821;50.936;6.854;2022-12-20T00:51:37;5.78;;;3.60;;
3613;SDS011;1821;50.936;6.854;2022-12-20T00:52:19;6.10;;;3.40;;
3613;SDS011;1821;50.936;6.854;2022-12-20T00:53:02;4.85;;;3.05;;
3613;SDS011;1821;50.936;6.854;2022-12-20T00:53:44;5.43;;;3.15;;
3613;SDS011;1821;50.936;6.854;2022-12-20T00:54:26;4.60;;;3.25;;
3613;SDS011;1821;50.936;6.854;2022-12-20T00:55:07;5.45;;;2.90;;
3613;SDS011;1821;50.936;6.854;2022-12-20T00:55:49;4.65;;;3.00;;
3613;SDS011;1821;50.936;6.854;2022-12-20T00:56:31;5.47;;;3.30;;
3613;SDS011;1821;50.936;6.854;2022-12-20T00:57:13;5.35;;;3.00;;
3613;SDS011;1821;50.936;6.854;2022-12-20T00:57:54;4.93;;;3.10;;
3613;SDS011;1821;50.936;6.854;2022-12-20T00:58:37;5.13;;;3.42;;
3613;SDS011;1821;50.936;6.854;2022-12-20T00:59:21;4.70;;;3.50;;
3613;SDS011;1821;50.936;6.854;2022-12-20T01:00:03;3.70;;;2.60;;
3613;SDS011;1821;50.936;6.854;2022-12-20T01:00:45;3.25;;;2.72;;
3613;SDS011;1821;50.936;6.854;2022-12-20T01:01:36;3.65;;;2.88;;
3613;SDS011;1821;50.936;6.854;2022-12-20T01:02:18;4.30;;;2.70;;
3613;SDS011;1821;50.936;6.854;2022-12-20T01:03:00;4.30;;;2.67;;
3613;SDS011;1821;50.936;6.854;2022-12-20T01:03:42;3.58;;;2.70;;
3613;SDS011;1821;50.936;6.854;2022-12-20T01:04:23;4.00;;;3.10;;
3613;SDS011;1821;50.936;6.854;2022-12-20T01:05:05;4.75;;;3.40;;
3613;SDS011;1821;50.936;6.854;2022-12-20T01:05:51;4.90;;;3.00;;
3613;SDS011;1821;50.936;6.854;2022-12-20T01:06:35;5.95;;;3.20;;
3613;SDS011;1821;50.936;6.854;2022-12-20T01:07:17;6.88;;;3.30;;
3613;SDS011;1821;50.936;6.854;2022-12-20T01:08:00;6.55;;;3.28;;
3613;SDS011;1821;50.936;6.854;2022-12-20T01:08:42;6.65;;;3.10;;
3613;SDS011;1821;50.936;6.854;2022-12-20T01:09:24;7.05;;;3.20;;
3613;SDS011;1821;50.936;6.854;2022-12-20T01:10:06;7.70;;;3.22;;
3613;SDS011;1821;50.936;6.854;2022-12-20T01:11:43;5.20;;;3.30;;
3613;SDS011;1821;50.936;6.854;2022-12-20T01:12:24;4.13;;;3.20;;
3613;SDS011;1821;50.936;6.854;2022-12-20T01:13:06;5.00;;;2.90;;
3613;SDS011;1821;50.936;6.854;2022-12-20T01:13:49;6.45;;;3.30;;
3613;SDS011;1821;50.936;6.854;2022-12-20T01:14:33;5.18;;;3.00;;
3613;SDS011;1821;50.936;6.854;2022-12-20T01:15:15;4.80;;;3.13;;
3613;SDS011;1821;50.936;6.854;2022-12-20T01:16:02;6.93;;;3.30;;
3613;SDS011;1821;50.936;6.854;2022-12-20T01:16:55;6.47;;;3.17;;
3613;SDS011;1821;50.936;6.854;2022-12-20T01:17:37;5.13;;;2.70;;
3613;SDS011;1821;50.936;6.854;2022-12-20T01:18:18;5.20;;;2.90;;
3613;SDS011;1821;50.936;6.854;2022-12-20T01:19:00;5.15;;;3.40;;
3613;SDS011;1821;50.936;6.854;2022-12-20T01:19:42;4.70;;;3.33;;
3613;SDS011;1821;50.936;6.854;2022-12-20T01:20:24;4.72;;;3.05;;
3613;SDS011;1821;50.936;6.854;2022-12-20T01:21:09;6.80;;;3.08;;
3613;SDS011;1821;50.936;6.854;2022-12-20T01:21:53;5.80;;;3.10;;
3613;SDS011;1821;50.936;6.854;2022-12-20T01:22:34;4.88;;;2.88;;
3613;SDS011;1821;50.936;6.854;2022-12-20T01:23:21;5.13;;;3.10;;
3613;SDS011;1821;50.936;6.854;2022-12-20T01:24:02;4.40;;;2.55;;
3613;SDS011;1821;50.936;6.854;2022-12-20T01:24:44;6.17;;;3.00;;
3613;SDS011;1821;50.936;6.854;2022-12-20T01:25:26;6.30;;;3.30;;
3613;SDS011;1821;50.936;6.854;2022-12-20T01:26:10;5.45;;;3.50;;
3613;SDS011;1821;50.936;6.854;2022-12-20T01:26:54;6.97;;;3.00;;
3613;SDS011;1821;50.936;6.854;2022-12-20T01:27:35;7.68;;;3.42;;
3613;SDS011;1821;50.936;6.854;2022-12-20T01:28:17;4.53;;;3.20;;
3613;SDS011;1821;50.936;6.854;2022-12-20T01:28:59;5.10;;;3.70;;
3613;SDS011;1821;50.936;6.854;2022-12-20T01:29:41;5.00;;;3.30;;
3613;SDS011;1821;50.936;6.854;2022-12-20T01:30:22;5.70;;;3.40;;
3613;SDS011;1821;50.936;6.854;2022-12-20T01:31:05;5.25;;;3.20;;
3613;SDS011;1821;50.936;6.854;2022-12-20T01:31:50;6.03;;;3.50;;
3613;SDS011;1821;50.936;6.854;2022-12-20T01:32:34;6.07;;;3.22;;
3613;SDS011;1821;50.936;6.854;2022-12-20T01:33:15;5.75;;;3.08;;
3613;SDS011;1821;50.936;6.854;2022-12-20T01:33:57;4.50;;;3.17;;
3613;SDS011;1821;50.936;6.854;2022-12-20T01:34:39;4.90;;;3.80;;
3613;SDS011;1821;50.936;6.854;2022-12-20T01:35:21;5.78;;;3.25;;
3613;SDS011;1821;50.936;6.854;2022-12-20T01:36:06;5.85;;;3.70;;
3613;SDS011;1821;50.936;6.854;2022-12-20T01:36:54;6.30;;;3.63;;
3613;SDS011;1821;50.936;6.854;2022-12-20T01:37:36;6.95;;;3.88;;
3613;SDS011;1821;50.936;6.854;2022-12-20T01:38:17;6.88;;;3.33;;
3613;SDS011;1821;50.936;6.854;2022-12-20T01:39:04;4.90;;;3.67;;
3613;SDS011;1821;50.936;6.854;2022-12-20T01:39:48;5.50;;;3.30;;
3613;SDS011;1821;50.936;6.854;2022-12-20T01:40:30;5.97;;;3.50;;
3613;SDS011;1821;50.936;6.854;2022-12-20T01:41:15;4.95;;;3.15;;
3613;SDS011;1821;50.936;6.854;2022-12-20T01:41:58;3.90;;;2.80;;
3613;SDS011;1821;50.936;6.854;2022-12-20T01:42:40;5.50;;;3.30;;
3613;SDS011;1821;50.936;6.854;2022-12-20T01:43:22;5.03;;;3.42;;
3613;SDS011;1821;50.936;6.854;2022-12-20T01:44:47;5.65;;;3.53;;
3613;SDS011;1821;50.936;6.854;2022-12-20T01:45:07;5.25;;;3.40;;
3613;SDS011;1821;50.936;6.854;2022-12-20T01:45:58;6.60;;;3.40;;
3613;SDS011;1821;50.936;6.854;2022-12-20T01:46:40;6.18;;;3.40;;
3613;SDS011;1821;50.936;6.854;2022-12-20T01:47:22;4.40;;;3.08;;
3613;SDS011;1821;50.936;6.854;2022-12-20T01:48:06;4.95;;;3.42;;
3613;SDS011;1821;50.936;6.854;2022-12-20T01:48:56;5.32;;;3.17;;
3613;SDS011;1821;50.936;6.854;2022-12-20T01:49:46;5.05;;;3.30;;
3613;SDS011;1821;50.936;6.854;2022-12-20T01:50:31;4.80;;;3.38;;
3613;SDS011;1821;50.936;6.854;2022-12-20T01:51:14;4.90;;;3.30;;
3613;SDS011;1821;50.936;6.854;2022-12-20T01:51:59;4.82;;;3.20;;
3613;SDS011;1821;50.936;6.854;2022-12-20T01:52:46;6.90;;;3.60;;
3613;SDS011;1821;50.936;6.854;2022-12-20T01:53:28;4.75;;;3.58;;
3613;SDS011;1821;50.936;6.854;2022-12-20T01:54:14;4.35;;;3.13;;
3613;SDS011;1821;50.936;6.854;2022-12-20T01:55:02;4.60;;;3.42;;
3613;SDS011;1821;50.936;6.854;2022-12-20T01:55:48;4.90;;;3.70;;
3613;SDS011;1821;50.936;6.854;2022-12-20T01:56:30;4.80;;;3.70;;
3613;SDS011;1821;50.936;6.854;2022-12-20T01:57:17;5.32;;;3.58;;
3613;SDS011;1821;50.936;6.854;2022-12-20T01:58:05;4.40;;;3.60;;
3613;SDS011;1821;50.936;6.854;2022-12-20T01:58:49;6.10;;;3.73;;
3613;SDS011;1821;50.936;6.854;2022-12-20T01:59:34;6.90;;;4.00;;
3613;SDS011;1821;50.936;6.854;2022-12-20T02:00:19;4.25;;;3.20;;
3613;SDS011;1821;50.936;6.854;2022-12-20T02:01:02;5.05;;;3.38;;
3613;SDS011;1821;50.936;6.854;2022-12-20T02:01:43;5.80;;;3.40;;
3613;SDS011;1821;50.936;6.854;2022-12-20T02:02:26;5.53;;;3.60;;
3613;SDS011;1821;50.936;6.854;2022-12-20T02:03:09;3.90;;;3.10;;
3613;SDS011;1821;50.936;6.854;2022-12-20T02:03:53;4.60;;;3.30;;
3613;SDS011;1821;50.936;6.854;2022-12-20T02:04:36;4.53;;;3.40;;
3613;SDS011;1821;50.936;6.854;2022-12-20T02:05:19;5.00;;;3.20;;
3613;SDS011;1821;50.936;6.854;2022-12-20T02:06:15;8.10;;;3.65;;
3613;SDS011;1821;50.936;6.854;2022-12-20T02:06:59;5.03;;;3.60;;
3613;SDS011;1821;50.936;6.854;2022-12-20T02:07:44;7.65;;;3.80;;
3613;SDS011;1821;50.936;6.854;2022-12-20T02:08:28;8.65;;;3.70;;
3613;SDS011;1821;50.936;6.854;2022-12-20T02:09:10;5.40;;;3.60;;
3613;SDS011;1821;50.936;6.854;2022-12-20T02:09:52;6.10;;;3.67;;
3613;SDS011;1821;50.936;6.854;2022-12-20T02:12:38;5.07;;;3.60;;
3613;SDS011;1821;50.936;6.854;2022-12-20T02:13:32;5.50;;;3.60;;
3613;SDS011;1821;50.936;6.854;2022-12-20T02:15:53;6.25;;;3.55;;
3613;SDS011;1821;50.936;6.854;2022-12-20T02:17:00;5.20;;;3.50;;
3613;SDS011;1821;50.936;6.854;2022-12-20T02:18:58;4.72;;;3.67;;
3613;SDS011;1821;50.936;6.854;2022-12-20T02:21:23;4.75;;;3.25;;
3613;SDS011;1821;50.936;6.854;2022-12-20T02:26:40;5.35;;;3.60;;
3613;SDS011;1821;50.936;6.854;2022-12-20T02:27:56;6.75;;;3.97;;
3613;SDS011;1821;50.936;6.854;2022-12-20T02:30:02;5.85;;;3.72;;
3613;SDS011;1821;50.936;6.854;2022-12-20T02:30:47;5.63;;;4.10;;
3613;SDS011;1821;50.936;6.854;2022-12-20T02:31:38;5.30;;;4.20;;
3613;SDS011;1821;50.936;6.854;2022-12-20T02:32:24;5.90;;;4.20;;
3613;SDS011;1821;50.936;6.854;2022-12-20T02:33:11;7.22;;;3.95;;
3613;SDS011;1821;50.936;6.854;2022-12-20T02:33:54;8.82;;;4.32;;
3613;SDS011;1821;50.936;6.854;2022-12-20T02:34:38;7.50;;;4.40;;
3613;SDS011;1821;50.936;6.854;2022-12-20T02:35:22;7.43;;;4.72;;
3613;SDS011;1821;50.936;6.854;2022-12-20T02:36:07;6.25;;;4.22;;
3613;SDS011;1821;50.936;6.854;2022-12-20T02:36:50;5.32;;;3.70;;
3613;SDS011;1821;50.936;6.854;2022-12-20T02:37:32;4.60;;;3.70;;
3613;SDS011;1821;50.936;6.854;2022-12-20T02:39:05;6.65;;;4.10;;
3613;SDS011;1821;50.936;6.854;2022-12-20T02:39:46;6.80;;;4.68;;
3613;SDS011;1821;50.936;6.854;2022-12-20T02:40:34;5.32;;;4.80;;
3613;SDS011;1821;50.936;6.854;2022-12-20T02:41:23;5.53;;;4.13;;
3613;SDS011;1821;50.936;6.854;2022-12-20T02:42:10;7.55;;;4.32;;
3613;SDS011;1821;50.936;6.854;2022-12-20T02:42:56;5.45;;;4.10;;
3613;SDS011;1821;50.936;6.854;2022-12-20T02:43:41;5.50;;;4.22;;
3613;SDS011;1821;50.936;6.854;2022-12-20T02:44:54;6.20;;;4.20;;
3613;SDS011;1821;50.936;6.854;2022-12-20T02:45:57;6.95;;;4.40;;
3613;SDS011;1821;50.936;6.854;2022-12-20T02:46:42;5.55;;;4.20;;
3613;SDS011;1821;50.936;6.854;2022-12-20T02:47:29;4.80;;;4.00;;
3613;SDS011;1821;50.936;6.854;2022-12-20T02:48:20;5.20;;;4.00;;
3613;SDS011;1821;50.936;6.854;2022-12-20T02:49:04;5.90;;;4.18;;
3613;SDS011;1821;50.936;6.854;2022-12-20T02:49:51;6.07;;;4.22;;
3613;SDS011;1821;50.936;6.854;2022-12-20T02:50:45;6.50;;;4.43;;
3613;SDS011;1821;50.936;6.854;2022-12-20T02:51:30;6.28;;;3.92;;
3613;SDS011;1821;50.936;6.854;2022-12-20T02:52:13;5.72;;;3.80;;
3613;SDS011;1821;50.936;6.854;2022-12-20T02:52:57;5.82;;;4.40;;
3613;SDS011;1821;50.936;6.854;2022-12-20T02:53:40;6.40;;;4.38;;
3613;SDS011;1821;50.936;6.854;2022-12-20T02:54:23;8.05;;;4.20;;
3613;SDS011;1821;50.936;6.854;2022-12-20T02:55:05;7.80;;;4.38;;
3613;SDS011;1821;50.936;6.854;2022-12-20T02:56:40;5.95;;;4.72;;
3613;SDS011;1821;50.936;6.854;2022-12-20T02:57:31;5.60;;;4.18;;
3613;SDS011;1821;50.936;6.854;2022-12-20T02:58:46;8.02;;;4.55;;
3613;SDS011;1821;50.936;6.854;2022-12-20T02:59:49;5.35;;;4.50;;
3613;SDS011;1821;50.936;6.854;2022-12-20T03:00:41;8.00;;;4.60;;
3613;SDS011;1821;50.936;6.854;2022-12-20T03:01:30;6.40;;;4.72;;
3613;SDS011;1821;50.936;6.854;2022-12-20T03:02:21;5.85;;;4.60;;
3613;SDS011;1821;50.936;6.854;2022-12-20T03:03:05;7.03;;;4.45;;
3613;SDS011;1821;50.936;6.854;2022-12-20T03:04:02;7.45;;;4.43;;
3613;SDS011;1821;50.936;6.854;2022-12-20T03:04:45;5.88;;;4.28;;
3613;SDS011;1821;50.936;6.854;2022-12-20T03:05:29;6.60;;;4.30;;
3613;SDS011;1821;50.936;6.854;2022-12-20T03:06:14;6.28;;;4.40;;
3613;SDS011;1821;50.936;6.854;2022-12-20T03:07:01;7.50;;;4.60;;
3613;SDS011;1821;50.936;6.854;2022-12-20T03:07:53;6.35;;;4.57;;
3613;SDS011;1821;50.936;6.854;2022-12-20T03:08:35;6.35;;;4.10;;
3613;SDS011;1821;50.936;6.854;2022-12-20T03:09:16;5.85;;;4.20;;
3613;SDS011;1821;50.936;6.854;2022-12-20T03:09:58;7.00;;;4.60;;
3613;SDS011;1821;50.936;6.854;2022-12-20T03:10:40;6.00;;;4.15;;
3613;SDS011;1821;50.936;6.854;2022-12-20T03:11:22;6.75;;;4.38;;
3613;SDS011;1821;50.936;6.854;2022-12-20T03:12:04;7.60;;;4.40;;
3613;SDS011;1821;50.936;6.854;2022-12-20T03:12:49;8.40;;;4.55;;
3613;SDS011;1821;50.936;6.854;2022-12-20T03:13:31;6.93;;;4.00;;
3613;SDS011;1821;50.936;6.854;2022-12-20T03:14:13;6.60;;;4.00;;
3613;SDS011;1821;50.936;6.854;2022-12-20T03:14:54;4.97;;;3.95;;
3613;SDS011;1821;50.936;6.854;2022-12-20T03:15:36;5.03;;;3.80;;
3613;SDS011;1821;50.936;6.854;2022-12-20T03:16:18;5.30;;;4.05;;
3613;SDS011;1821;50.936;6.854;2022-12-20T03:17:00;6.43;;;4.55;;
3613;SDS011;1821;50.936;6.854;2022-12-20T03:17:44;6.35;;;4.32;;
3613;SDS011;1821;50.936;6.854;2022-12-20T03:18:26;4.50;;;3.78;;
3613;SDS011;1821;50.936;6.854;2022-12-20T03:19:08;7.40;;;3.60;;
3613;SDS011;1821;50.936;6.854;2022-12-20T03:19:50;5.72;;;3.60;;
3613;SDS011;1821;50.936;6.854;2022-12-20T03:20:31;5.93;;;3.60;;
3613;SDS011;1821;50.936;6.854;2022-12-20T03:21:13;6.90;;;3.63;;
3613;SDS011;1821;50.936;6.854;2022-12-20T03:21:55;6.22;;;3.72;;
3613;SDS011;1821;50.936;6.854;2022-12-20T03:22:37;5.32;;;3.70;;
3613;SDS011;1821;50.936;6.854;2022-12-20T03:23:19;5.75;;;4.10;;
3613;SDS011;1821;50.936;6.854;2022-12-20T03:24:02;5.03;;;4.13;;
3613;SDS011;1821;50.936;6.854;2022-12-20T03:24:44;7.13;;;4.20;;
3613;SDS011;1821;50.936;6.854;2022-12-20T03:25:26;5.97;;;3.80;;
3613;SDS011;1821;50.936;6.854;2022-12-20T03:26:08;4.70;;;3.60;;
3613;SDS011;1821;50.936;6.854;2022-12-20T03:26:50;5.20;;;3.40;;
3613;SDS011;1821;50.936;6.854;2022-12-20T03:27:32;5.65;;;4.00;;
3613;SDS011;1821;50.936;6.854;2022-12-20T03:28:14;4.78;;;3.78;;
3613;SDS011;1821;50.936;6.854;2022-12-20T03:28:55;5.97;;;3.83;;
3613;SDS011;1821;50.936;6.854;2022-12-20T03:29:37;5.18;;;3.30;;
3613;SDS011;1821;50.936;6.854;2022-12-20T03:30:19;4.13;;;3.55;;
3613;SDS011;1821;50.936;6.854;2022-12-20T03:31:01;5.63;;;3.45;;
3613;SDS011;1821;50.936;6.854;2022-12-20T03:31:43;5.85;;;3.65;;
3613;SDS011;1821;50.936;6.854;2022-12-20T03:32:25;5.97;;;3.88;;
3613;SDS011;1821;50.936;6.854;2022-12-20T03:33:08;5.90;;;3.78;;
3613;SDS011;1821;50.936;6.854;2022-12-20T03:33:50;4.90;;;3.33;;
3613;SDS011;1821;50.936;6.854;2022-12-20T03:34:34;4.60;;;3.70;;
3613;SDS011;1821;50.936;6.854;2022-12-20T03:35:15;5.50;;;3.92;;
3613;SDS011;1821;50.936;6.854;2022-12-20T03:35:57;4.63;;;3.53;;
3613;SDS011;1821;50.936;6.854;2022-12-20T03:36:39;4.75;;;3.88;;
3613;SDS011;1821;50.936;6.854;2022-12-20T03:37:21;4.85;;;3.50;;
3613;SDS011;1821;50.936;6.854;2022-12-20T03:38:03;5.80;;;3.55;;
3613;SDS011;1821;50.936;6.854;2022-12-20T03:38:44;6.22;;;3.70;;
3613;SDS011;1821;50.936;6.854;2022-12-20T03:39:26;4.85;;;3.80;;
3613;SDS011;1821;50.936;6.854;2022-12-20T03:40:08;4.30;;;3.42;;
3613;SDS011;1821;50.936;6.854;2022-12-20T03:40:50;5.82;;;3.75;;
3613;SDS011;1821;50.936;6.854;2022-12-20T03:41:32;5.40;;;3.70;;
3613;SDS011;1821;50.936;6.854;2022-12-20T03:42:14;5.22;;;3.60;;
3613;SDS011;1821;50.936;6.854;2022-12-20T03:42:56;5.60;;;3.70;;
3613;SDS011;1821;50.936;6.854;2022-12-20T03:43:38;5.97;;;3.85;;
3613;SDS011;1821;50.936;6.854;2022-12-20T03:44:20;6.15;;;3.90;;
3613;SDS011;1821;50.936;6.854;2022-12-20T03:45:04;5.10;;;3.90;;
3613;SDS011;1821;50.936;6.854;2022-12-20T03:45:46;4.93;;;3.60;;
3613;SDS011;1821;50.936;6.854;2022-12-20T03:46:29;7.80;;;3.75;;
3613;SDS011;1821;50.936;6.854;2022-12-20T03:47:11;7.82;;;3.83;;
3613;SDS011;1821;50.936;6.854;2022-12-20T03:47:52;6.13;;;3.92;;
3613;SDS011;1821;50.936;6.854;2022-12-20T03:48:34;5.55;;;3.90;;
3613;SDS011;1821;50.936;6.854;2022-12-20T03:49:16;6.00;;;4.22;;
3613;SDS011;1821;50.936;6.854;2022-12-20T03:49:58;5.20;;;4.00;;
3613;SDS011;1821;50.936;6.854;2022-12-20T03:50:41;6.97;;;3.70;;
3613;SDS011;1821;50.936;6.854;2022-12-20T03:51:22;6.43;;;4.25;;
3613;SDS011;1821;50.936;6.854;2022-12-20T03:52:04;5.72;;;3.80;;
3613;SDS011;1821;50.936;6.854;2022-12-20T03:52:46;10.13;;;4.68;;
3613;SDS011;1821;50.936;6.854;2022-12-20T03:53:28;6.00;;;4.20;;
3613;SDS011;1821;50.936;6.854;2022-12-20T03:54:10;5.15;;;3.75;;
3613;SDS011;1821;50.936;6.854;2022-12-20T03:54:52;5.90;;;3.63;;
3613;SDS011;1821;50.936;6.854;2022-12-20T03:55:34;5.82;;;3.70;;
3613;SDS011;1821;50.936;6.854;2022-12-20T03:56:16;5.40;;;3.90;;
3613;SDS011;1821;50.936;6.854;2022-12-20T03:56:59;5.72;;;4.00;;
3613;SDS011;1821;50.936;6.854;2022-12-20T03:57:41;7.88;;;4.38;;
3613;SDS011;1821;50.936;6.854;2022-12-20T03:58:22;6.88;;;4.13;;
3613;SDS011;1821;50.936;6.854;2022-12-20T03:59:04;6.80;;;4.22;;
3613;SDS011;1821;50.936;6.854;2022-12-20T03:59:46;7.30;;;4.15;;
3613;SDS011;1821;50.936;6.854;2022-12-20T04:00:28;7.70;;;4.20;;
3613;SDS011;1821;50.936;6.854;2022-12-20T04:01:20;7.20;;;3.70;;
3613;SDS011;1821;50.936;6.854;2022-12-20T04:02:06;6.97;;;3.90;;
3613;SDS011;1821;50.936;6.854;2022-12-20T04:02:50;5.13;;;3.70;;
3613;SDS011;1821;50.936;6.854;2022-12-20T04:03:33;6.70;;;4.60;;
3613;SDS011;1821;50.936;6.854;2022-12-20T04:04:14;5.20;;;4.15;;
3613;SDS011;1821;50.936;6.854;2022-12-20T04:04:56;8.48;;;4.10;;
3613;SDS011;1821;50.936;6.854;2022-12-20T04:05:38;5.77;;;3.77;;
3613;SDS011;1821;50.936;6.854;2022-12-20T04:06:20;4.57;;;3.40;;
3613;SDS011;1821;50.936;6.854;2022-12-20T04:07:03;6.53;;;4.20;;
3613;SDS011;1821;50.936;6.854;2022-12-20T04:07:45;6.28;;;4.18;;
3613;SDS011;1821;50.936;6.854;2022-12-20T04:08:27;5.50;;;3.80;;
3613;SDS011;1821;50.936;6.854;2022-12-20T04:09:08;5.05;;;3.80;;
3613;SDS011;1821;50.936;6.854;2022-12-20T04:09:50;6.50;;;4.45;;
3613;SDS011;1821;50.936;6.854;2022-12-20T04:10:32;6.80;;;4.50;;
3613;SDS011;1821;50.936;6.854;2022-12-20T04:11:34;6.50;;;4.55;;
3613;SDS011;1821;50.936;6.854;2022-12-20T04:12:16;5.45;;;4.20;;
3613;SDS011;1821;50.936;6.854;2022-12-20T04:12:57;4.80;;;3.90;;
3613;SDS011;1821;50.936;6.854;2022-12-20T04:13:39;7.73;;;4.13;;
3613;SDS011;1821;50.936;6.854;2022-12-20T04:14:21;8.75;;;4.78;;
3613;SDS011;1821;50.936;6.854;2022-12-20T04:15:05;6.25;;;4.65;;
3613;SDS011;1821;50.936;6.854;2022-12-20T04:15:48;6.55;;;4.68;;
3613;SDS011;1821;50.936;6.854;2022-12-20T04:16:34;5.60;;;4.80;;
3613;SDS011;1821;50.936;6.854;2022-12-20T04:17:16;5.60;;;4.50;;
3613;SDS011;1821;50.936;6.854;2022-12-20T04:17:58;5.70;;;4.40;;
3613;SDS011;1821;50.936;6.854;2022-12-20T04:18:40;5.00;;;4.40;;
3613;SDS011;1821;50.936;6.854;2022-12-20T04:19:24;5.55;;;4.60;;
3613;SDS011;1821;50.936;6.854;2022-12-20T04:20:06;6.93;;;4.60;;
3613;SDS011;1821;50.936;6.854;2022-12-20T04:21:00;6.47;;;4.90;;
3613;SDS011;1821;50.936;6.854;2022-12-20T04:21:42;5.25;;;4.53;;
3613;SDS011;1821;50.936;6.854;2022-12-20T04:22:24;5.22;;;4.47;;
3613;SDS011;1821;50.936;6.854;2022-12-20T04:23:06;7.28;;;5.13;;
3613;SDS011;1821;50.936;6.854;2022-12-20T04:23:47;6.03;;;4.82;;
3613;SDS011;1821;50.936;6.854;2022-12-20T04:24:29;5.68;;;4.70;;
3613;SDS011;1821;50.936;6.854;2022-12-20T04:25:11;6.88;;;4.40;;
3613;SDS011;1821;50.936;6.854;2022-12-20T04:25:53;7.15;;;4.68;;
3613;SDS011;1821;50.936;6.854;2022-12-20T04:26:35;6.50;;;4.50;;
3613;SDS011;1821;50.936;6.854;2022-12-20T04:27:19;6.85;;;4.93;;
3613;SDS011;1821;50.936;6.854;2022-12-20T04:28:01;5.35;;;4.68;;
3613;SDS011;1821;50.936;6.854;2022-12-20T04:28:43;6.15;;;4.75;;
3613;SDS011;1821;50.936;6.854;2022-12-20T04:29:25;6.20;;;4.85;;
3613;SDS011;1821;50.936;6.854;2022-12-20T04:30:07;8.75;;;5.47;;
3613;SDS011;1821;50.936;6.854;2022-12-20T04:30:49;9.23;;;5.30;;
3613;SDS011;1821;50.936;6.854;2022-12-20T04:31:31;7.27;;;5.00;;
3613;SDS011;1821;50.936;6.854;2022-12-20T04:32:13;6.45;;;4.70;;
3613;SDS011;1821;50.936;6.854;2022-12-20T04:32:55;7.78;;;4.78;;
3613;SDS011;1821;50.936;6.854;2022-12-20T04:33:39;7.47;;;5.10;;
3613;SDS011;1821;50.936;6.854;2022-12-20T04:34:21;6.65;;;4.38;;
3613;SDS011;1821;50.936;6.854;2022-12-20T04:35:03;5.75;;;4.38;;
3613;SDS011;1821;50.936;6.854;2022-12-20T04:35:45;7.40;;;5.57;;
3613;SDS011;1821;50.936;6.854;2022-12-20T04:36:27;8.13;;;5.10;;
3613;SDS011;1821;50.936;6.854;2022-12-20T04:37:09;8.23;;;4.90;;
3613;SDS011;1821;50.936;6.854;2022-12-20T04:37:51;7.10;;;4.97;;
3613;SDS011;1821;50.936;6.854;2022-12-20T04:38:32;8.38;;;4.68;;
3613;SDS011;1821;50.936;6.854;2022-12-20T04:39:14;7.07;;;4.68;;
3613;SDS011;1821;50.936;6.854;2022-12-20T04:39:56;6.55;;;4.78;;
3613;SDS011;1821;50.936;6.854;2022-12-20T04:40:38;8.60;;;4.90;;
3613;SDS011;1821;50.936;6.854;2022-12-20T04:41:20;8.98;;;5.18;;
3613;SDS011;1821;50.936;6.854;2022-12-20T04:42:04;6.65;;;4.80;;
3613;SDS011;1821;50.936;6.854;2022-12-20T04:42:46;6.13;;;5.10;;
3613;SDS011;1821;50.936;6.854;2022-12-20T04:43:28;7.47;;;5.40;;
3613;SDS011;1821;50.936;6.854;2022-12-20T04:44:10;7.70;;;4.82;;
3613;SDS011;1821;50.936;6.854;2022-12-20T04:44:52;5.88;;;5.03;;
3613;SDS011;1821;50.936;6.854;2022-12-20T04:45:34;7.32;;;5.10;;
3613;SDS011;1821;50.936;6.854;2022-12-20T04:46:16;6.07;;;5.30;;
3613;SDS011;1821;50.936;6.854;2022-12-20T04:46:58;8.15;;;5.75;;